Winchester, VA

11:19 PM EST on November 27, 2014 (GMT -0500)
Health Professions Building | Change Station
CLOSE
Current Station
Personal Weather Station
Location: Winchester, VA
Elevation: 873 ft
Nearby Weather Stations

Elev 873 ft 39.20 °N, 78.19 °W | Updated 4 seconds ago

Clear
Clear
31.3 °F
Feels Like 25 °F
N
6.9
Wind Variable Wind from WSW
Gusts 7.0 mph

Today
High -- | Low -- °F
--% Chance of Precip.
Yesterday
High -- | Low -- °F
Precip. -- in
7:08 AM 4:51 PM
Waxing Crescent, 36% visible
Pressure 30.19 in
Visibility 10.0 miles
Clouds Clear
Windchill 25 °F
Dew Point 23 °F
Humidity 72%
Rainfall 0.00 in
Snow Depth Not available.
UV 0 out of 12
Pollen .10 out of 12
Air Quality Not available.
Flu Activity Not available.
METAR KOKV 280355Z AUTO 30013KT 10SM CLR 01/M06 A3019 RMK AO2

More Conditions Fewer Conditions

Pressure 30.19 in
Visibility 10.0 miles
Clouds Clear
Windchill 25 °F
Dew Point 23 °F
Humidity 72%
Rainfall 0.00 in
Snow Depth Not available.
UV 0 out of 12
Pollen .10 out of 12
Air Quality Not available.
Flu Activity Not available.
METAR KOKV 280355Z AUTO 30013KT 10SM CLR 01/M06 A3019 RMK AO2

More Conditions Fewer Conditions

10-Day Weather Forecast

Almanac

Astronomy

Nov. 27, 2014 Rise Set
Actual Time
Civil Twilight
Nautical Twilight
Astronomical Twilight
Moon
Length of Visible Light
Length of Day
Tomorrow will be .
, % of the Moon is Illuminated

Today's Extremes

State Highs State Lows

Community

WunderPhotos

Upload Photos

1,774,179 photos uploaded!

WunderBlogs® & News

Nearby

Air Quality

  Air Quality AQ Index Pollutant
Not available.

Snow Depth

Station Depth Elevation

Earthquake Activity

City Distance Mag. Time & Date
Minimum magnitude displayed is 2.5.

Coastal Water Temperatures

Place Temperature

Nearby Weather Stations